createdAt,value
2018-12-14T00:01:28.096Z,102487.02
2018-12-14T00:03:56.483Z,102492.48
2018-12-14T00:06:24.724Z,102487.73
2018-12-14T00:08:52.968Z,102487.02
2018-12-14T00:11:21.266Z,102493.55
2018-12-14T00:13:49.595Z,102489.28
2018-12-14T00:16:17.901Z,102486.16
2018-12-14T00:18:46.224Z,102480.49
2018-12-14T00:21:14.549Z,102484.88
2018-12-14T00:23:42.980Z,102489.62
2018-12-14T00:26:11.220Z,102493.27
2018-12-14T00:28:39.516Z,102491.00
2018-12-14T00:31:07.851Z,102498.13
2018-12-14T00:33:36.131Z,102500.39
2018-12-14T00:36:04.513Z,102503.58
2018-12-14T00:38:32.867Z,102501.34
2018-12-14T00:41:01.179Z,102503.31
2018-12-14T00:43:29.462Z,102495.05
2018-12-14T00:45:57.728Z,102498.72
2018-12-14T00:48:25.934Z,102502.62
2018-12-14T00:50:54.154Z,102502.17
2018-12-14T00:53:22.440Z,102503.48
2018-12-14T00:55:50.677Z,102505.94
2018-12-14T01:05:14.259Z,102510.94
2018-12-14T01:07:42.550Z,102505.73
2018-12-14T01:10:10.810Z,102508.20
2018-12-14T01:12:40.199Z,102509.39
2018-12-14T01:15:08.499Z,102514.15
2018-12-14T01:17:36.967Z,102511.55
2018-12-14T01:20:07.260Z,102514.15
2018-12-14T01:22:35.582Z,102515.31
2018-12-14T01:25:04.021Z,102515.20
2018-12-14T01:27:32.306Z,102519.61
2018-12-14T01:30:00.614Z,102520.42
2018-12-14T01:32:28.925Z,102521.23
2018-12-14T01:34:57.223Z,102515.44
2018-12-14T01:37:25.563Z,102512.00
2018-12-14T01:39:53.837Z,102510.47
2018-12-14T01:42:22.103Z,102509.02
2018-12-14T01:44:50.407Z,102507.73
2018-12-14T01:47:18.670Z,102498.02
2018-12-14T01:49:47.012Z,102504.77
2018-12-14T01:52:15.252Z,102508.22
2018-12-14T01:54:43.706Z,102504.32
2018-12-14T01:57:18.322Z,102506.33
2018-12-14T01:59:46.639Z,102504.90
2018-12-14T02:02:15.420Z,102500.65
2018-12-14T02:04:43.630Z,102497.09
2018-12-14T02:07:11.938Z,102495.20
2018-12-14T02:09:40.203Z,102497.45
2018-12-14T02:12:11.230Z,102498.41
2018-12-14T02:14:38.701Z,102501.14
2018-12-14T02:17:06.962Z,102504.45
2018-12-14T02:19:35.260Z,102497.57
2018-12-14T02:22:03.558Z,102491.41
2018-12-14T02:24:31.811Z,102494.24
2018-12-14T02:27:00.180Z,102496.61
2018-12-14T02:29:28.468Z,102491.64
2018-12-14T02:31:56.775Z,102491.53
2018-12-14T02:34:25.035Z,102492.59
2018-12-14T02:36:53.237Z,102487.23
2018-12-14T02:39:21.468Z,102490.58
2018-12-14T02:41:49.859Z,102488.33
2018-12-14T02:44:18.137Z,102489.86
2018-12-14T02:46:46.460Z,102485.60
2018-12-14T02:49:14.698Z,102487.87
2018-12-14T02:51:42.936Z,102493.32
2018-12-14T02:54:11.217Z,102483.72
2018-12-14T02:56:39.439Z,102495.33
2018-12-14T02:59:07.785Z,102488.20
2018-12-14T03:01:36.120Z,102494.86
2018-12-14T03:04:04.428Z,102496.85
2018-12-14T03:06:32.740Z,102490.09
2018-12-14T03:09:00.982Z,102495.31
2018-12-14T03:11:29.189Z,102489.62
2018-12-14T03:13:57.432Z,102488.31
2018-12-14T03:16:25.645Z,102491.27
2018-12-14T03:18:53.883Z,102485.13
2018-12-14T03:21:22.162Z,102491.05
2018-12-14T03:23:50.416Z,102489.62
2018-12-14T03:26:18.762Z,102484.75
2018-12-14T03:28:53.677Z,102486.89
2018-12-14T03:31:21.950Z,102484.65
2018-12-14T03:33:50.207Z,102487.01
2018-12-14T03:36:18.466Z,102483.70
2018-12-14T03:38:46.794Z,102474.59
2018-12-14T03:41:15.026Z,102480.38
2018-12-14T03:43:43.282Z,102477.09
2018-12-14T03:46:11.568Z,102476.25
2018-12-14T03:48:39.855Z,102479.55
2018-12-14T03:51:08.089Z,102493.89
2018-12-14T03:53:36.363Z,102493.43
2018-12-14T03:56:04.586Z,102491.77
2018-12-14T03:58:32.849Z,102492.09
2018-12-14T04:01:01.092Z,102498.41
2018-12-14T04:03:29.313Z,102495.80
2018-12-14T04:05:57.625Z,102507.77
2018-12-14T04:08:25.855Z,102506.09
2018-12-14T04:10:54.195Z,102493.30
2018-12-14T04:13:22.541Z,102497.56
2018-12-14T04:15:50.844Z,102506.33
2018-12-14T04:18:19.128Z,102508.56
2018-12-14T04:20:47.560Z,102500.63
2018-12-14T04:23:15.861Z,102502.08
2018-12-14T04:25:44.127Z,102503.13
2018-12-14T04:28:12.440Z,102496.48
2018-12-14T04:30:40.639Z,102503.00
2018-12-14T04:33:08.871Z,102500.52
2018-12-14T04:35:37.157Z,102494.02
2018-12-14T04:38:05.423Z,102495.45
2018-12-14T04:40:33.674Z,102491.88
2018-12-14T04:43:01.983Z,102491.52
2018-12-14T04:45:30.281Z,102501.34
2018-12-14T04:47:58.638Z,102488.20
2018-12-14T04:50:26.907Z,102494.72
2018-12-14T04:52:55.192Z,102489.29
2018-12-14T04:55:23.447Z,102490.69
2018-12-14T04:57:51.677Z,102491.28
2018-12-14T05:00:19.913Z,102485.83
2018-12-14T05:02:48.205Z,102485.83
2018-12-14T05:05:16.453Z,102480.15
2018-12-14T05:07:44.700Z,102477.78
2018-12-14T05:10:12.877Z,102479.20
2018-12-14T05:12:41.136Z,102478.03
2018-12-14T05:15:09.357Z,102468.06
2018-12-14T05:17:37.825Z,102481.91
2018-12-14T05:20:06.533Z,102498.84
2018-12-14T05:22:34.760Z,102505.73
2018-12-14T05:25:02.972Z,102500.41
2018-12-14T05:27:31.214Z,102487.50
2018-12-14T05:29:59.623Z,102487.73
2018-12-14T05:32:27.924Z,102493.43
2018-12-14T05:34:56.217Z,102485.38
2018-12-14T05:37:24.458Z,102484.20
2018-12-14T05:39:52.690Z,102488.44
2018-12-14T05:42:20.911Z,102492.81
2018-12-14T05:44:49.232Z,102491.52
2018-12-14T05:47:17.563Z,102491.28
2018-12-14T05:49:45.843Z,102489.74
2018-12-14T05:52:14.186Z,102489.77
2018-12-14T05:54:42.491Z,102477.33
2018-12-14T05:57:10.792Z,102488.79
2018-12-14T05:59:39.086Z,102489.39
2018-12-14T06:02:07.337Z,102494.03
2018-12-14T06:04:35.570Z,102489.75
2018-12-14T06:07:04.000Z,102495.20
2018-12-14T06:09:32.171Z,102489.52
2018-12-14T06:12:00.564Z,102494.48
2018-12-14T06:14:28.852Z,102501.44
2018-12-14T06:16:57.054Z,102502.86
2018-12-14T06:19:25.290Z,102498.75
2018-12-14T06:21:53.507Z,102506.65
2018-12-14T06:24:22.049Z,102498.25
2018-12-14T06:26:50.422Z,102500.61
2018-12-14T06:29:18.670Z,102505.11
2018-12-14T06:31:46.877Z,102512.92
2018-12-14T06:34:15.058Z,102511.86
2018-12-14T06:36:43.349Z,102511.77
2018-12-14T06:39:11.600Z,102513.28
2018-12-14T06:41:40.336Z,102513.16
2018-12-14T06:44:08.588Z,102515.41
2018-12-14T06:46:36.835Z,102509.61
2018-12-14T06:49:05.082Z,102509.38
2018-12-14T06:51:33.407Z,102515.05
2018-12-14T06:54:01.713Z,102507.48
2018-12-14T06:56:30.113Z,102518.37
2018-12-14T06:58:58.435Z,102524.16
2018-12-14T07:01:26.714Z,102530.32
2018-12-14T07:03:54.966Z,102529.77
2018-12-14T07:06:23.189Z,102536.72
2018-12-14T07:08:51.413Z,102537.30
2018-12-14T07:11:19.713Z,102539.67
2018-12-14T07:13:48.045Z,102547.84
2018-12-14T07:16:16.355Z,102548.43
2018-12-14T07:18:44.663Z,102537.69
2018-12-14T07:21:12.987Z,102541.72
2018-12-14T07:23:41.195Z,102538.61
2018-12-14T07:26:09.436Z,102551.19
2018-12-14T07:28:37.665Z,102554.11
2018-12-14T07:31:06.024Z,102563.69
2018-12-14T07:33:34.264Z,102567.95
2018-12-14T07:36:02.562Z,102572.21
2018-12-14T07:38:30.783Z,102567.02
2018-12-14T07:40:59.135Z,102568.55
2018-12-14T07:43:28.427Z,102563.58
2018-12-14T07:45:57.050Z,102561.21
2018-12-14T07:48:25.270Z,102570.36
2018-12-14T07:50:53.555Z,102575.92
2018-12-14T07:53:21.902Z,102577.34
2018-12-14T07:55:50.135Z,102583.11
2018-12-14T07:58:18.382Z,102581.70
2018-12-14T08:00:46.743Z,102587.38
2018-12-14T08:03:15.260Z,102585.52
2018-12-14T08:05:43.564Z,102590.02
2018-12-14T08:08:11.781Z,102586.82
2018-12-14T08:10:39.989Z,102591.67
2018-12-14T08:13:08.396Z,102596.96
2018-12-14T08:15:36.961Z,102604.69
2018-12-14T08:18:05.273Z,102600.67
2018-12-14T08:20:33.650Z,102600.91
2018-12-14T08:23:01.888Z,102598.53
2018-12-14T08:25:30.183Z,102603.47
2018-12-14T08:27:58.562Z,102591.27
2018-12-14T08:30:26.976Z,102591.28
2018-12-14T08:32:55.235Z,102581.80
2018-12-14T08:35:23.538Z,102591.27
2018-12-14T08:37:51.961Z,102592.34
2018-12-14T08:40:20.272Z,102601.70
2018-12-14T08:42:48.807Z,102604.58
2018-12-14T08:45:17.156Z,102599.01
2018-12-14T08:47:45.603Z,102607.38
2018-12-14T08:50:13.908Z,102610.45
2018-12-14T08:52:42.151Z,102618.66
2018-12-14T08:55:10.448Z,102613.41
2018-12-14T08:57:38.834Z,102621.40
2018-12-14T09:00:07.282Z,102617.25
2018-12-14T09:02:35.583Z,102626.36
2018-12-14T09:05:04.130Z,102628.01
2018-12-14T09:07:32.457Z,102630.73
2018-12-14T09:10:00.719Z,102628.95
2018-12-14T09:12:28.984Z,102633.23
2018-12-14T09:14:57.243Z,102627.66
2018-12-14T09:17:25.543Z,102624.06
2018-12-14T09:19:54.302Z,102625.55
2018-12-14T09:22:22.515Z,102631.81
2018-12-14T09:24:50.750Z,102631.58
2018-12-14T09:27:18.972Z,102630.50
2018-12-14T09:29:47.236Z,102631.33
2018-12-14T09:32:15.465Z,102636.97
2018-12-14T09:34:44.016Z,102635.06
2018-12-14T09:37:12.299Z,102645.72
2018-12-14T09:39:40.692Z,102647.74
2018-12-14T09:42:08.937Z,102647.48
2018-12-14T09:44:37.179Z,102643.58
2018-12-14T09:47:05.523Z,102647.02
2018-12-14T09:49:33.733Z,102648.33
2018-12-14T09:52:02.032Z,102649.75
2018-12-14T09:54:30.408Z,102656.85
2018-12-14T09:56:58.663Z,102654.25
2018-12-14T09:59:26.940Z,102661.34
2018-12-14T10:01:55.259Z,102653.18
2018-12-14T10:04:23.543Z,102661.34
2018-12-14T10:06:51.792Z,102658.16
2018-12-14T10:09:20.050Z,102668.10
2018-12-14T10:11:54.887Z,102660.92
2018-12-14T10:14:31.272Z,102664.83
2018-12-14T10:16:59.510Z,102656.42
2018-12-14T10:22:20.385Z,102651.29
2018-12-14T10:24:48.639Z,102651.27
2018-12-14T10:27:32.867Z,102650.79
2018-12-14T10:30:01.144Z,102646.07
2018-12-14T10:32:29.455Z,102644.18
2018-12-14T10:34:57.702Z,102655.78
2018-12-14T10:37:26.009Z,102650.98
2018-12-14T10:39:54.259Z,102655.00
2018-12-14T10:42:22.708Z,102649.52
2018-12-14T10:44:50.997Z,102655.78
2018-12-14T10:47:19.248Z,102662.18
2018-12-14T10:49:47.474Z,102649.98
2018-12-14T10:52:15.766Z,102643.11
2018-12-14T10:54:44.375Z,102652.22
2018-12-14T10:57:16.161Z,102650.69
2018-12-14T10:59:43.208Z,102644.30
2018-12-14T11:02:11.421Z,102647.38
2018-12-14T11:04:39.716Z,102643.36
2018-12-14T11:07:07.943Z,102637.95
2018-12-14T11:09:36.250Z,102646.23
2018-12-14T11:12:04.497Z,102640.33
2018-12-14T11:14:32.713Z,102644.94
2018-12-14T11:17:01.001Z,102642.28
2018-12-14T11:19:29.295Z,102640.86
2018-12-14T11:21:57.550Z,102634.58
2018-12-14T11:24:25.809Z,102636.59
2018-12-14T11:26:54.075Z,102631.28
2018-12-14T11:29:22.268Z,102629.87
2018-12-14T11:31:50.530Z,102632.03
2018-12-14T11:34:18.827Z,102637.13
2018-12-14T11:36:47.150Z,102631.76
2018-12-14T11:39:15.390Z,102636.30
2018-12-14T11:41:43.949Z,102630.50
2018-12-14T11:44:12.206Z,102635.95
2018-12-14T11:46:40.507Z,102627.42
2018-12-14T11:49:08.815Z,102633.47
2018-12-14T11:51:37.308Z,102635.00
2018-12-14T11:54:05.551Z,102634.83
2018-12-14T11:56:33.829Z,102626.53
2018-12-14T11:59:02.089Z,102632.81
2018-12-14T12:01:30.334Z,102635.54
2018-12-14T12:03:58.586Z,102641.46
2018-12-14T12:06:26.805Z,102638.39
2018-12-14T12:08:55.014Z,102639.08
2018-12-14T12:11:23.233Z,102634.11
2018-12-14T12:13:51.472Z,102632.34
2018-12-14T12:16:19.784Z,102638.83
2018-12-14T12:18:48.068Z,102642.58
2018-12-14T12:21:16.561Z,102642.94
2018-12-14T12:23:44.886Z,102647.95
2018-12-14T12:26:13.149Z,102646.37
2018-12-14T12:28:41.392Z,102642.73
2018-12-14T12:31:09.727Z,102643.56
2018-12-14T12:33:38.069Z,102639.79
2018-12-14T12:36:06.368Z,102640.05
2018-12-14T12:38:38.104Z,102643.48
2018-12-14T12:41:04.884Z,102640.39
2018-12-14T12:43:33.135Z,102637.35
2018-12-14T12:46:01.437Z,102632.03
2018-12-14T12:48:29.804Z,102632.27
2018-12-14T12:51:03.079Z,102633.47
2018-12-14T12:53:28.378Z,102632.82
2018-12-14T12:55:56.699Z,102632.58
2018-12-14T12:58:25.082Z,102639.09
2018-12-14T13:00:53.341Z,102635.82
2018-12-14T13:03:21.940Z,102640.16
2018-12-14T13:05:50.260Z,102641.33
2018-12-14T13:08:18.612Z,102638.83
2018-12-14T13:10:46.901Z,102637.38
2018-12-14T13:13:15.155Z,102640.61
2018-12-14T13:15:43.438Z,102635.00
2018-12-14T13:18:11.654Z,102640.20
2018-12-14T13:20:39.929Z,102643.98
2018-12-14T13:23:08.137Z,102635.00
2018-12-14T13:25:36.438Z,102638.20
2018-12-14T13:28:05.118Z,102644.23
2018-12-14T13:30:33.389Z,102645.06
2018-12-14T13:33:01.830Z,102640.39
2018-12-14T13:35:30.061Z,102645.61
2018-12-14T13:37:58.283Z,102638.73
2018-12-14T13:40:26.590Z,102639.45
2018-12-14T13:42:54.852Z,102635.18
2018-12-14T13:45:23.175Z,102635.41
2018-12-14T13:47:51.458Z,102633.28
2018-12-14T13:50:19.810Z,102635.66
2018-12-14T13:52:48.125Z,102648.19
2018-12-14T13:55:16.404Z,102650.31
2018-12-14T13:57:45.594Z,102655.64
2018-12-14T14:00:14.029Z,102646.23
2018-12-14T14:02:42.318Z,102652.05
2018-12-14T14:05:10.583Z,102650.39
2018-12-14T14:07:39.002Z,102645.28
2018-12-14T14:10:07.592Z,102644.22
2018-12-14T14:12:35.833Z,102648.02
2018-12-14T14:15:04.539Z,102656.50
2018-12-14T14:17:32.934Z,102658.30
2018-12-14T14:20:01.294Z,102660.25
2018-12-14T14:22:30.049Z,102654.97
2018-12-14T14:24:58.326Z,102661.03
2018-12-14T14:27:26.621Z,102662.18
2018-12-14T14:29:54.881Z,102659.86
2018-12-14T14:32:23.171Z,102667.65
2018-12-14T14:34:51.474Z,102666.23
2018-12-14T14:37:19.790Z,102668.48
2018-12-14T14:39:48.058Z,102665.25
2018-12-14T14:42:16.480Z,102671.04
2018-12-14T14:44:44.789Z,102678.42
2018-12-14T14:47:13.021Z,102677.55
2018-12-14T14:49:41.430Z,102683.09
2018-12-14T14:52:09.690Z,102683.34
2018-12-14T14:54:39.928Z,102682.73
2018-12-14T14:57:08.425Z,102686.09
2018-12-14T14:59:36.760Z,102680.91
2018-12-14T15:02:05.120Z,102680.21
2018-12-14T15:04:33.350Z,102689.45
2018-12-14T15:07:01.657Z,102694.16
2018-12-14T15:09:30.097Z,102700.69
2018-12-14T15:11:58.454Z,102702.83
2018-12-14T15:14:26.772Z,102704.08
2018-12-14T15:16:55.030Z,102700.80
2018-12-14T15:19:23.268Z,102701.69
2018-12-14T15:21:51.822Z,102703.94
2018-12-14T15:24:20.103Z,102707.84
2018-12-14T15:26:48.455Z,102713.92
2018-12-14T15:29:16.744Z,102709.20
2018-12-14T15:31:45.721Z,102713.59
2018-12-14T15:34:14.535Z,102710.38
2018-12-14T15:36:43.143Z,102705.77
2018-12-14T15:39:11.368Z,102713.29
2018-12-14T15:41:39.625Z,102716.61
2018-12-14T15:44:07.901Z,102713.43
2018-12-14T15:46:36.172Z,102718.16
2018-12-14T15:49:04.498Z,102728.69
2018-12-14T15:51:32.864Z,102728.24
2018-12-14T15:54:01.089Z,102728.58
2018-12-14T15:56:29.385Z,102726.08
2018-12-14T15:58:57.702Z,102723.73
2018-12-14T16:01:25.983Z,102727.27
2018-12-14T16:03:54.309Z,102724.09
2018-12-14T16:06:22.595Z,102725.17
2018-12-14T16:11:43.419Z,102725.69
2018-12-14T16:14:11.638Z,102722.23
2018-12-14T16:16:39.923Z,102722.62
2018-12-14T16:19:08.277Z,102725.86
2018-12-14T16:21:36.676Z,102725.31
2018-12-14T16:24:04.943Z,102718.44
2018-12-14T16:26:33.215Z,102722.52
2018-12-14T16:29:01.562Z,102726.06
2018-12-14T16:31:29.826Z,102724.31
2018-12-14T16:33:58.148Z,102725.53
2018-12-14T16:36:26.397Z,102720.63
2018-12-14T16:38:55.410Z,102722.06
2018-12-14T16:41:23.661Z,102729.08
2018-12-14T16:46:44.748Z,102731.63
2018-12-14T16:49:13.186Z,102731.45
2018-12-14T16:52:04.384Z,102731.78
2018-12-14T16:54:35.932Z,102726.61
2018-12-14T16:57:04.380Z,102730.02
2018-12-14T16:59:32.734Z,102730.23
2018-12-14T17:02:01.032Z,102732.62
2018-12-14T17:07:21.804Z,102739.31
2018-12-14T17:09:50.064Z,102738.84
2018-12-14T17:12:18.315Z,102737.95
2018-12-14T17:14:46.677Z,102738.84
2018-12-14T17:17:14.916Z,102741.47
2018-12-14T17:19:43.183Z,102738.05
2018-12-14T17:22:11.606Z,102736.02
2018-12-14T17:24:39.861Z,102734.61
2018-12-14T17:27:08.608Z,102740.03
2018-12-14T17:29:36.826Z,102741.61
2018-12-14T17:32:05.112Z,102744.55
2018-12-14T17:34:33.391Z,102745.36
2018-12-14T17:37:01.733Z,102750.20
2018-12-14T17:39:29.964Z,102743.58
2018-12-14T17:41:58.229Z,102745.05
2018-12-14T17:44:26.528Z,102740.83
2018-12-14T17:46:54.997Z,102744.87
2018-12-14T17:49:23.269Z,102744.41
2018-12-14T17:51:51.639Z,102748.64
2018-12-14T17:54:19.878Z,102745.33
2018-12-14T17:56:48.180Z,102752.23
2018-12-14T17:59:16.564Z,102746.98
2018-12-14T18:01:45.233Z,102749.84
2018-12-14T18:04:13.776Z,102748.58
2018-12-14T18:06:43.011Z,102751.83
2018-12-14T18:09:11.394Z,102752.19
2018-12-14T18:11:39.675Z,102754.79
2018-12-14T18:14:07.976Z,102746.77
2018-12-14T18:16:36.750Z,102752.77
2018-12-14T18:19:05.228Z,102750.48
2018-12-14T18:21:33.581Z,102753.41
2018-12-14T18:24:01.837Z,102760.73
2018-12-14T18:26:30.112Z,102760.99
2018-12-14T18:28:58.378Z,102761.58
2018-12-14T18:31:26.626Z,102768.52
2018-12-14T18:33:55.068Z,102768.59
2018-12-14T18:36:23.457Z,102776.91
2018-12-14T18:38:51.733Z,102783.77
2018-12-14T18:41:20.022Z,102782.36
2018-12-14T18:43:48.349Z,102788.46
2018-12-14T18:46:16.945Z,102786.66
2018-12-14T18:48:45.321Z,102788.39
2018-12-14T18:51:13.568Z,102793.02
2018-12-14T18:53:46.197Z,102793.34
2018-12-14T18:56:14.561Z,102788.36
2018-12-14T18:58:42.828Z,102792.34
2018-12-14T19:01:11.091Z,102794.32
2018-12-14T19:03:39.495Z,102803.64
2018-12-14T19:06:07.842Z,102803.31
2018-12-14T19:08:36.855Z,102802.41
2018-12-14T19:11:05.247Z,102810.29
2018-12-14T19:13:33.951Z,102804.00
2018-12-14T19:16:02.559Z,102809.67
2018-12-14T19:18:30.831Z,102806.48
2018-12-14T19:20:59.165Z,102802.91
2018-12-14T19:23:28.245Z,102813.05
2018-12-14T19:25:56.734Z,102813.42
2018-12-14T19:28:25.021Z,102809.41
2018-12-14T19:30:53.315Z,102824.77
2018-12-14T19:33:22.028Z,102825.71
2018-12-14T19:35:50.473Z,102822.06
2018-12-14T19:38:18.757Z,102824.08
2018-12-14T19:40:47.105Z,102823.30
2018-12-14T19:43:15.621Z,102821.98
2018-12-14T19:45:44.085Z,102829.26
2018-12-14T19:48:12.390Z,102821.82
2018-12-14T19:50:40.887Z,102824.02
2018-12-14T19:53:09.709Z,102831.39
2018-12-14T19:55:38.115Z,102820.39
2018-12-14T19:58:06.362Z,102818.78
2018-12-14T20:00:35.321Z,102833.16
2018-12-14T20:03:04.739Z,102830.56
2018-12-14T20:05:33.236Z,102834.92
2018-12-14T20:08:01.731Z,102840.91
2018-12-14T20:10:30.228Z,102838.95
2018-12-14T20:12:59.107Z,102837.77
2018-12-14T20:15:27.885Z,102835.61
2018-12-14T20:17:56.661Z,102836.02
2018-12-14T20:20:24.910Z,102838.57
2018-12-14T20:22:53.549Z,102840.70
2018-12-14T20:25:21.931Z,102843.75
2018-12-14T20:27:50.208Z,102843.15
2018-12-14T20:30:18.758Z,102845.07
2018-12-14T20:32:47.227Z,102848.77
2018-12-14T20:35:16.431Z,102848.61
2018-12-14T20:37:45.066Z,102849.80
2018-12-14T20:40:13.478Z,102848.66
2018-12-14T20:42:41.790Z,102858.14
2018-12-14T20:45:10.254Z,102858.48
2018-12-14T20:47:38.705Z,102859.84
2018-12-14T20:50:08.102Z,102867.59
2018-12-14T20:52:36.686Z,102869.75
2018-12-14T20:55:06.301Z,102870.14
2018-12-14T20:57:53.819Z,102867.46
2018-12-14T21:00:22.300Z,102866.19
2018-12-14T21:03:13.083Z,102873.27
2018-12-14T21:05:41.733Z,102870.14
2018-12-14T21:08:10.627Z,102865.41
2018-12-14T21:10:39.344Z,102872.52
2018-12-14T21:13:08.469Z,102866.05
2018-12-14T21:15:37.901Z,102863.75
2018-12-14T21:18:06.903Z,102863.28
2018-12-14T21:20:35.273Z,102869.47
2018-12-14T21:23:03.747Z,102874.20
2018-12-14T21:28:24.807Z,102872.16
2018-12-14T21:30:53.107Z,102870.03
2018-12-14T21:33:21.670Z,102871.33
2018-12-14T21:35:49.961Z,102869.42
2018-12-14T21:38:24.046Z,102874.50
2018-12-14T21:40:52.339Z,102861.20
2018-12-14T21:43:20.754Z,102865.46
2018-12-14T21:45:49.067Z,102868.59
2018-12-14T21:48:18.198Z,102863.13
2018-12-14T21:50:46.468Z,102862.33
2018-12-14T21:53:14.820Z,102861.20
2018-12-14T21:55:43.229Z,102860.21
2018-12-14T21:58:11.596Z,102861.81
2018-12-14T22:00:39.932Z,102863.17
2018-12-14T22:03:08.201Z,102862.55
2018-12-14T22:05:36.605Z,102865.58
2018-12-14T22:08:05.139Z,102863.80
2018-12-14T22:10:33.489Z,102869.56
2018-12-14T22:13:01.766Z,102866.13
2018-12-14T22:15:30.078Z,102859.17
2018-12-14T22:17:58.332Z,102859.23
2018-12-14T22:20:26.592Z,102858.50
2018-12-14T22:22:54.934Z,102863.06
2018-12-14T22:25:23.519Z,102858.39
2018-12-14T22:27:52.251Z,102863.39
2018-12-14T22:30:20.876Z,102864.79
2018-12-14T22:32:49.257Z,102863.69
2018-12-14T22:35:17.895Z,102864.54
2018-12-14T22:37:46.291Z,102862.34
2018-12-14T22:40:14.680Z,102859.44
2018-12-14T22:42:43.537Z,102852.48
2018-12-14T22:45:11.953Z,102855.28
2018-12-14T22:47:40.461Z,102853.52
2018-12-14T22:50:08.962Z,102846.55
2018-12-14T22:52:37.440Z,102852.69
2018-12-14T22:55:06.048Z,102847.47
2018-12-14T22:57:34.420Z,102851.08
2018-12-14T23:00:02.945Z,102852.30
2018-12-14T23:02:31.408Z,102852.48
2018-12-14T23:04:59.756Z,102853.25
2018-12-14T23:07:28.109Z,102853.23
2018-12-14T23:09:56.997Z,102842.28
2018-12-14T23:12:25.368Z,102844.78
2018-12-14T23:14:53.714Z,102844.56
2018-12-14T23:17:22.059Z,102847.47
2018-12-14T23:19:50.306Z,102841.44
2018-12-14T23:22:18.596Z,102846.70
2018-12-14T23:24:46.861Z,102847.99
2018-12-14T23:27:15.121Z,102845.86
2018-12-14T23:29:43.413Z,102849.92
2018-12-14T23:32:11.676Z,102847.00
2018-12-14T23:34:39.957Z,102850.59
2018-12-14T23:37:13.722Z,102855.22
2018-12-14T23:39:38.443Z,102857.72
2018-12-14T23:42:06.755Z,102849.02
2018-12-14T23:44:35.221Z,102845.39
2018-12-14T23:47:03.482Z,102846.48
2018-12-14T23:49:31.723Z,102847.12
2018-12-14T23:52:00.040Z,102842.28
2018-12-14T23:54:28.398Z,102838.23
2018-12-14T23:56:56.672Z,102847.53
2018-12-14T23:59:24.971Z,102846.23
